sensor_id;sensor_type;location;lat;lon;timestamp;temperature;humidity
20777;DHT22;10548;47.504;8.248;2023-07-22T00:00:05;17.40;99.90
20777;DHT22;10548;47.504;8.248;2023-07-22T00:02:33;17.40;99.90
20777;DHT22;10548;47.504;8.248;2023-07-22T00:05:00;17.40;99.90
20777;DHT22;10548;47.504;8.248;2023-07-22T00:07:27;17.30;99.90
20777;DHT22;10548;47.504;8.248;2023-07-22T00:09:54;17.10;99.90
20777;DHT22;10548;47.504;8.248;2023-07-22T00:12:21;17.00;99.90
20777;DHT22;10548;47.504;8.248;2023-07-22T00:14:52;17.10;99.90
20777;DHT22;10548;47.504;8.248;2023-07-22T00:17:20;17.10;99.90
20777;DHT22;10548;47.504;8.248;2023-07-22T00:19:48;17.00;99.90
20777;DHT22;10548;47.504;8.248;2023-07-22T00:22:15;17.00;99.90
20777;DHT22;10548;47.504;8.248;2023-07-22T00:24:42;16.90;99.90
20777;DHT22;10548;47.504;8.248;2023-07-22T00:27:09;16.80;99.90
20777;DHT22;10548;47.504;8.248;2023-07-22T00:29:36;16.80;99.90
20777;DHT22;10548;47.504;8.248;2023-07-22T00:32:05;16.70;99.90
20777;DHT22;10548;47.504;8.248;2023-07-22T00:34:34;16.60;99.90
20777;DHT22;10548;47.504;8.248;2023-07-22T00:37:01;16.60;99.90
20777;DHT22;10548;47.504;8.248;2023-07-22T00:39:28;16.50;99.90
20777;DHT22;10548;47.504;8.248;2023-07-22T00:41:55;16.40;99.90
20777;DHT22;10548;47.504;8.248;2023-07-22T00:44:22;16.30;99.90
20777;DHT22;10548;47.504;8.248;2023-07-22T00:46:53;16.40;99.90
20777;DHT22;10548;47.504;8.248;2023-07-22T00:49:22;16.30;99.90
20777;DHT22;10548;47.504;8.248;2023-07-22T00:51:49;16.30;99.90
20777;DHT22;10548;47.504;8.248;2023-07-22T00:54:17;16.20;99.90
20777;DHT22;10548;47.504;8.248;2023-07-22T00:56:46;16.20;99.90
20777;DHT22;10548;47.504;8.248;2023-07-22T00:59:15;16.20;99.90
20777;DHT22;10548;47.504;8.248;2023-07-22T01:01:43;16.20;99.90
20777;DHT22;10548;47.504;8.248;2023-07-22T01:04:10;16.20;99.90
20777;DHT22;10548;47.504;8.248;2023-07-22T01:06:37;16.00;99.90
20777;DHT22;10548;47.504;8.248;2023-07-22T01:09:05;15.90;99.90
20777;DHT22;10548;47.504;8.248;2023-07-22T01:11:34;15.70;99.90
20777;DHT22;10548;47.504;8.248;2023-07-22T01:14:01;15.60;99.90
20777;DHT22;10548;47.504;8.248;2023-07-22T01:16:29;15.60;99.90
20777;DHT22;10548;47.504;8.248;2023-07-22T01:18:56;15.70;99.90
20777;DHT22;10548;47.504;8.248;2023-07-22T01:21:24;15.70;99.90
20777;DHT22;10548;47.504;8.248;2023-07-22T01:23:52;15.60;99.90
20777;DHT22;10548;47.504;8.248;2023-07-22T01:26:20;15.60;99.90
20777;DHT22;10548;47.504;8.248;2023-07-22T01:28:47;15.50;99.90
20777;DHT22;10548;47.504;8.248;2023-07-22T01:31:14;15.40;99.90
20777;DHT22;10548;47.504;8.248;2023-07-22T01:33:41;15.40;99.90
20777;DHT22;10548;47.504;8.248;2023-07-22T01:36:08;15.40;99.90
20777;DHT22;10548;47.504;8.248;2023-07-22T01:38:35;15.50;99.90
20777;DHT22;10548;47.504;8.248;2023-07-22T01:41:03;15.50;99.90
20777;DHT22;10548;47.504;8.248;2023-07-22T01:43:30;15.40;99.90
20777;DHT22;10548;47.504;8.248;2023-07-22T01:45:57;15.40;99.90
20777;DHT22;10548;47.504;8.248;2023-07-22T01:48:24;15.30;99.90
20777;DHT22;10548;47.504;8.248;2023-07-22T01:50:51;15.30;99.90
20777;DHT22;10548;47.504;8.248;2023-07-22T01:53:19;15.30;99.90
20777;DHT22;10548;47.504;8.248;2023-07-22T01:55:46;15.40;99.90
20777;DHT22;10548;47.504;8.248;2023-07-22T01:58:13;15.30;99.90
20777;DHT22;10548;47.504;8.248;2023-07-22T02:00:40;15.30;99.90
20777;DHT22;10548;47.504;8.248;2023-07-22T02:03:07;15.20;99.90
20777;DHT22;10548;47.504;8.248;2023-07-22T02:05:34;15.20;99.90
20777;DHT22;10548;47.504;8.248;2023-07-22T02:08:02;15.20;99.90
20777;DHT22;10548;47.504;8.248;2023-07-22T02:10:29;15.10;99.90
20777;DHT22;10548;47.504;8.248;2023-07-22T02:12:57;15.00;99.90
20777;DHT22;10548;47.504;8.248;2023-07-22T02:15:24;15.00;99.90
20777;DHT22;10548;47.504;8.248;2023-07-22T02:17:51;14.90;99.90
20777;DHT22;10548;47.504;8.248;2023-07-22T02:20:18;14.80;99.90
20777;DHT22;10548;47.504;8.248;2023-07-22T02:22:45;14.90;99.90
20777;DHT22;10548;47.504;8.248;2023-07-22T02:25:12;14.80;99.90
20777;DHT22;10548;47.504;8.248;2023-07-22T02:27:41;14.70;99.90
20777;DHT22;10548;47.504;8.248;2023-07-22T02:30:09;14.70;99.90
20777;DHT22;10548;47.504;8.248;2023-07-22T02:32:40;14.70;99.90
20777;DHT22;10548;47.504;8.248;2023-07-22T02:35:08;14.60;99.90
20777;DHT22;10548;47.504;8.248;2023-07-22T02:37:38;14.60;99.90
20777;DHT22;10548;47.504;8.248;2023-07-22T02:40:06;14.60;99.90
20777;DHT22;10548;47.504;8.248;2023-07-22T02:42:39;14.50;99.90
20777;DHT22;10548;47.504;8.248;2023-07-22T02:45:07;14.50;99.90
20777;DHT22;10548;47.504;8.248;2023-07-22T02:47:37;14.50;99.90
20777;DHT22;10548;47.504;8.248;2023-07-22T02:50:06;14.50;99.90
20777;DHT22;10548;47.504;8.248;2023-07-22T02:52:33;14.50;99.90
20777;DHT22;10548;47.504;8.248;2023-07-22T02:55:09;14.40;99.90
20777;DHT22;10548;47.504;8.248;2023-07-22T02:57:40;14.40;99.90
20777;DHT22;10548;47.504;8.248;2023-07-22T03:00:08;14.40;99.90
20777;DHT22;10548;47.504;8.248;2023-07-22T03:02:36;14.40;99.90
20777;DHT22;10548;47.504;8.248;2023-07-22T03:05:04;14.40;99.90
20777;DHT22;10548;47.504;8.248;2023-07-22T03:07:35;14.40;99.90
20777;DHT22;10548;47.504;8.248;2023-07-22T03:10:03;14.30;99.90
20777;DHT22;10548;47.504;8.248;2023-07-22T03:12:31;14.30;99.90
20777;DHT22;10548;47.504;8.248;2023-07-22T03:14:58;14.20;99.90
20777;DHT22;10548;47.504;8.248;2023-07-22T03:17:25;14.20;99.90
20777;DHT22;10548;47.504;8.248;2023-07-22T03:19:53;14.20;99.90
20777;DHT22;10548;47.504;8.248;2023-07-22T03:22:20;14.20;99.90
20777;DHT22;10548;47.504;8.248;2023-07-22T03:24:47;14.10;99.90
20777;DHT22;10548;47.504;8.248;2023-07-22T03:27:14;14.10;99.90
20777;DHT22;10548;47.504;8.248;2023-07-22T03:29:44;14.10;99.90
20777;DHT22;10548;47.504;8.248;2023-07-22T03:32:11;14.10;99.90
20777;DHT22;10548;47.504;8.248;2023-07-22T03:34:38;14.10;99.90
20777;DHT22;10548;47.504;8.248;2023-07-22T03:37:05;14.20;99.90
20777;DHT22;10548;47.504;8.248;2023-07-22T03:39:32;14.10;99.90
20777;DHT22;10548;47.504;8.248;2023-07-22T03:42:00;14.10;99.90
20777;DHT22;10548;47.504;8.248;2023-07-22T03:44:27;14.10;99.90
20777;DHT22;10548;47.504;8.248;2023-07-22T03:46:56;14.10;99.90
20777;DHT22;10548;47.504;8.248;2023-07-22T03:49:23;14.10;99.90
20777;DHT22;10548;47.504;8.248;2023-07-22T03:51:50;14.00;99.90
20777;DHT22;10548;47.504;8.248;2023-07-22T03:54:18;14.00;99.90
20777;DHT22;10548;47.504;8.248;2023-07-22T03:56:45;14.00;99.90
20777;DHT22;10548;47.504;8.248;2023-07-22T03:59:12;14.00;99.90
20777;DHT22;10548;47.504;8.248;2023-07-22T04:01:39;14.10;99.90
20777;DHT22;10548;47.504;8.248;2023-07-22T04:04:06;14.00;99.90
20777;DHT22;10548;47.504;8.248;2023-07-22T04:06:33;14.00;99.90
20777;DHT22;10548;47.504;8.248;2023-07-22T04:09:01;14.00;99.90
20777;DHT22;10548;47.504;8.248;2023-07-22T04:11:28;14.00;99.90
20777;DHT22;10548;47.504;8.248;2023-07-22T04:13:55;13.80;99.90
20777;DHT22;10548;47.504;8.248;2023-07-22T04:16:23;13.80;99.90
20777;DHT22;10548;47.504;8.248;2023-07-22T04:18:51;13.70;99.90
20777;DHT22;10548;47.504;8.248;2023-07-22T04:21:18;13.80;99.90
20777;DHT22;10548;47.504;8.248;2023-07-22T04:23:45;13.80;99.90
20777;DHT22;10548;47.504;8.248;2023-07-22T04:26:13;13.90;99.90
20777;DHT22;10548;47.504;8.248;2023-07-22T04:28:40;13.90;99.90
20777;DHT22;10548;47.504;8.248;2023-07-22T04:31:08;13.80;99.90
20777;DHT22;10548;47.504;8.248;2023-07-22T04:33:36;13.80;99.90
20777;DHT22;10548;47.504;8.248;2023-07-22T04:36:03;13.80;99.90
20777;DHT22;10548;47.504;8.248;2023-07-22T04:38:30;13.80;99.90
20777;DHT22;10548;47.504;8.248;2023-07-22T04:40:58;13.80;99.90
20777;DHT22;10548;47.504;8.248;2023-07-22T04:43:26;13.80;99.90
20777;DHT22;10548;47.504;8.248;2023-07-22T04:45:53;13.90;99.90
20777;DHT22;10548;47.504;8.248;2023-07-22T04:48:21;13.90;99.90
20777;DHT22;10548;47.504;8.248;2023-07-22T04:50:50;14.00;99.90
20777;DHT22;10548;47.504;8.248;2023-07-22T04:53:17;14.10;99.90
20777;DHT22;10548;47.504;8.248;2023-07-22T04:55:45;14.20;99.90
20777;DHT22;10548;47.504;8.248;2023-07-22T04:58:12;14.20;99.90
20777;DHT22;10548;47.504;8.248;2023-07-22T05:00:39;14.20;99.90
20777;DHT22;10548;47.504;8.248;2023-07-22T05:03:09;14.20;99.90
20777;DHT22;10548;47.504;8.248;2023-07-22T05:05:36;14.20;99.90
20777;DHT22;10548;47.504;8.248;2023-07-22T05:08:03;14.30;99.90
20777;DHT22;10548;47.504;8.248;2023-07-22T05:10:30;14.40;99.90
20777;DHT22;10548;47.504;8.248;2023-07-22T05:12:57;14.30;99.90
20777;DHT22;10548;47.504;8.248;2023-07-22T05:15:25;14.40;99.90
20777;DHT22;10548;47.504;8.248;2023-07-22T05:17:52;14.50;99.90
20777;DHT22;10548;47.504;8.248;2023-07-22T05:20:19;14.60;99.90
20777;DHT22;10548;47.504;8.248;2023-07-22T05:22:46;14.60;99.90
20777;DHT22;10548;47.504;8.248;2023-07-22T05:25:13;14.60;99.90
20777;DHT22;10548;47.504;8.248;2023-07-22T05:27:41;14.60;99.90
20777;DHT22;10548;47.504;8.248;2023-07-22T05:30:08;14.70;99.90
20777;DHT22;10548;47.504;8.248;2023-07-22T05:32:53;14.80;99.90
20777;DHT22;10548;47.504;8.248;2023-07-22T05:35:20;14.90;99.90
20777;DHT22;10548;47.504;8.248;2023-07-22T05:37:47;15.00;99.90
20777;DHT22;10548;47.504;8.248;2023-07-22T05:40:14;15.00;99.90
20777;DHT22;10548;47.504;8.248;2023-07-22T05:42:41;15.00;99.90
20777;DHT22;10548;47.504;8.248;2023-07-22T05:45:09;15.10;99.90
20777;DHT22;10548;47.504;8.248;2023-07-22T05:47:40;15.30;99.90
20777;DHT22;10548;47.504;8.248;2023-07-22T05:50:08;15.40;99.90
20777;DHT22;10548;47.504;8.248;2023-07-22T05:52:35;15.40;99.90
20777;DHT22;10548;47.504;8.248;2023-07-22T05:55:02;15.40;99.90
20777;DHT22;10548;47.504;8.248;2023-07-22T05:57:29;15.50;99.90
20777;DHT22;10548;47.504;8.248;2023-07-22T05:59:57;15.50;99.90
20777;DHT22;10548;47.504;8.248;2023-07-22T06:02:40;15.60;99.90
20777;DHT22;10548;47.504;8.248;2023-07-22T06:05:08;15.80;99.90
20777;DHT22;10548;47.504;8.248;2023-07-22T06:07:35;16.00;99.90
20777;DHT22;10548;47.504;8.248;2023-07-22T06:10:04;16.10;99.90
20777;DHT22;10548;47.504;8.248;2023-07-22T06:12:31;16.20;99.90
20777;DHT22;10548;47.504;8.248;2023-07-22T06:14:58;16.30;99.90
20777;DHT22;10548;47.504;8.248;2023-07-22T06:17:25;16.10;99.90
20777;DHT22;10548;47.504;8.248;2023-07-22T06:19:52;16.10;99.90
20777;DHT22;10548;47.504;8.248;2023-07-22T06:22:20;16.30;99.90
20777;DHT22;10548;47.504;8.248;2023-07-22T06:24:47;16.50;99.90
20777;DHT22;10548;47.504;8.248;2023-07-22T06:27:14;16.80;99.90
20777;DHT22;10548;47.504;8.248;2023-07-22T06:29:41;16.90;99.90
20777;DHT22;10548;47.504;8.248;2023-07-22T06:32:08;16.90;99.90
20777;DHT22;10548;47.504;8.248;2023-07-22T06:34:36;16.80;99.90
20777;DHT22;10548;47.504;8.248;2023-07-22T06:37:03;16.90;99.90
20777;DHT22;10548;47.504;8.248;2023-07-22T06:39:31;16.90;99.90
20777;DHT22;10548;47.504;8.248;2023-07-22T06:41:58;17.20;99.90
20777;DHT22;10548;47.504;8.248;2023-07-22T06:44:25;17.20;99.90
20777;DHT22;10548;47.504;8.248;2023-07-22T06:46:52;17.40;99.90
20777;DHT22;10548;47.504;8.248;2023-07-22T06:49:19;17.50;99.90
20777;DHT22;10548;47.504;8.248;2023-07-22T06:51:46;17.60;99.90
20777;DHT22;10548;47.504;8.248;2023-07-22T06:54:13;17.50;99.90
20777;DHT22;10548;47.504;8.248;2023-07-22T06:56:40;17.70;99.90
20777;DHT22;10548;47.504;8.248;2023-07-22T06:59:08;17.70;99.90
20777;DHT22;10548;47.504;8.248;2023-07-22T07:01:35;17.70;99.90
20777;DHT22;10548;47.504;8.248;2023-07-22T07:04:02;17.80;99.90
20777;DHT22;10548;47.504;8.248;2023-07-22T07:06:30;18.20;99.90
20777;DHT22;10548;47.504;8.248;2023-07-22T07:08:59;18.40;99.90
20777;DHT22;10548;47.504;8.248;2023-07-22T07:11:29;18.60;99.90
20777;DHT22;10548;47.504;8.248;2023-07-22T07:13:57;18.10;99.90
20777;DHT22;10548;47.504;8.248;2023-07-22T07:16:29;18.40;99.90
20777;DHT22;10548;47.504;8.248;2023-07-22T07:19:00;18.40;99.90
20777;DHT22;10548;47.504;8.248;2023-07-22T07:21:27;18.50;99.90
20777;DHT22;10548;47.504;8.248;2023-07-22T07:23:55;18.70;99.90
20777;DHT22;10548;47.504;8.248;2023-07-22T07:26:22;19.00;99.90
20777;DHT22;10548;47.504;8.248;2023-07-22T07:28:52;19.10;99.90
20777;DHT22;10548;47.504;8.248;2023-07-22T07:31:19;19.10;99.90
20777;DHT22;10548;47.504;8.248;2023-07-22T07:33:46;19.40;99.90
20777;DHT22;10548;47.504;8.248;2023-07-22T07:36:14;19.70;99.90
20777;DHT22;10548;47.504;8.248;2023-07-22T07:38:41;19.90;99.90
20777;DHT22;10548;47.504;8.248;2023-07-22T07:41:10;19.90;99.90
20777;DHT22;10548;47.504;8.248;2023-07-22T07:43:42;20.20;99.90
20777;DHT22;10548;47.504;8.248;2023-07-22T07:46:17;20.20;99.90
20777;DHT22;10548;47.504;8.248;2023-07-22T07:48:47;20.50;99.90
20777;DHT22;10548;47.504;8.248;2023-07-22T07:51:15;20.10;99.90
20777;DHT22;10548;47.504;8.248;2023-07-22T07:53:43;19.80;99.90
20777;DHT22;10548;47.504;8.248;2023-07-22T07:56:11;19.80;99.90
20777;DHT22;10548;47.504;8.248;2023-07-22T07:58:39;19.90;99.90
20777;DHT22;10548;47.504;8.248;2023-07-22T08:01:07;20.50;99.90
20777;DHT22;10548;47.504;8.248;2023-07-22T08:03:36;20.30;99.90
20777;DHT22;10548;47.504;8.248;2023-07-22T08:06:04;20.70;99.90
20777;DHT22;10548;47.504;8.248;2023-07-22T08:08:31;20.80;99.90
20777;DHT22;10548;47.504;8.248;2023-07-22T08:11:18;20.40;98.60
20777;DHT22;10548;47.504;8.248;2023-07-22T08:13:45;20.90;98.40
20777;DHT22;10548;47.504;8.248;2023-07-22T08:16:13;21.60;97.40
20777;DHT22;10548;47.504;8.248;2023-07-22T08:18:41;21.60;96.60
20777;DHT22;10548;47.504;8.248;2023-07-22T08:21:08;22.20;95.10
20777;DHT22;10548;47.504;8.248;2023-07-22T08:23:36;22.30;94.80
20777;DHT22;10548;47.504;8.248;2023-07-22T08:26:04;22.00;95.20
20777;DHT22;10548;47.504;8.248;2023-07-22T08:28:34;21.10;94.20
20777;DHT22;10548;47.504;8.248;2023-07-22T08:31:02;21.00;93.40
20777;DHT22;10548;47.504;8.248;2023-07-22T08:33:30;21.20;95.00
20777;DHT22;10548;47.504;8.248;2023-07-22T08:36:00;21.50;92.70
20777;DHT22;10548;47.504;8.248;2023-07-22T08:38:29;21.80;92.40
20777;DHT22;10548;47.504;8.248;2023-07-22T08:40:56;21.00;93.00
20777;DHT22;10548;47.504;8.248;2023-07-22T08:43:23;21.30;92.40
20777;DHT22;10548;47.504;8.248;2023-07-22T08:45:52;21.80;92.60
20777;DHT22;10548;47.504;8.248;2023-07-22T08:48:21;22.30;90.40
20777;DHT22;10548;47.504;8.248;2023-07-22T08:51:04;22.00;91.30
20777;DHT22;10548;47.504;8.248;2023-07-22T08:53:34;21.10;91.60
20777;DHT22;10548;47.504;8.248;2023-07-22T08:56:01;20.70;92.90
20777;DHT22;10548;47.504;8.248;2023-07-22T08:58:29;20.80;87.30
20777;DHT22;10548;47.504;8.248;2023-07-22T09:00:57;21.70;86.90
20777;DHT22;10548;47.504;8.248;2023-07-22T09:03:25;22.40;89.30
20777;DHT22;10548;47.504;8.248;2023-07-22T09:05:52;23.00;86.30
20777;DHT22;10548;47.504;8.248;2023-07-22T09:08:20;22.90;79.50
20777;DHT22;10548;47.504;8.248;2023-07-22T09:10:48;22.60;79.90
20777;DHT22;10548;47.504;8.248;2023-07-22T09:13:15;22.80;80.00
20777;DHT22;10548;47.504;8.248;2023-07-22T09:15:45;22.80;73.10
20777;DHT22;10548;47.504;8.248;2023-07-22T09:18:13;22.60;71.80
20777;DHT22;10548;47.504;8.248;2023-07-22T09:20:41;24.00;65.90
20777;DHT22;10548;47.504;8.248;2023-07-22T09:23:09;24.70;61.70
20777;DHT22;10548;47.504;8.248;2023-07-22T09:25:40;24.20;60.40
20777;DHT22;10548;47.504;8.248;2023-07-22T09:28:08;24.30;61.50
20777;DHT22;10548;47.504;8.248;2023-07-22T09:30:38;24.30;61.00
20777;DHT22;10548;47.504;8.248;2023-07-22T09:33:08;23.40;62.60
20777;DHT22;10548;47.504;8.248;2023-07-22T09:35:50;22.80;63.90
20777;DHT22;10548;47.504;8.248;2023-07-22T09:38:24;22.60;61.90
20777;DHT22;10548;47.504;8.248;2023-07-22T09:40:52;22.60;59.00
20777;DHT22;10548;47.504;8.248;2023-07-22T09:43:19;22.70;58.20
20777;DHT22;10548;47.504;8.248;2023-07-22T09:45:47;22.60;59.80
20777;DHT22;10548;47.504;8.248;2023-07-22T09:48:15;22.80;59.90
20777;DHT22;10548;47.504;8.248;2023-07-22T09:50:43;22.70;61.10
20777;DHT22;10548;47.504;8.248;2023-07-22T09:53:15;22.70;59.80
20777;DHT22;10548;47.504;8.248;2023-07-22T09:55:43;23.30;59.40
20777;DHT22;10548;47.504;8.248;2023-07-22T09:58:11;24.20;55.80
20777;DHT22;10548;47.504;8.248;2023-07-22T10:00:47;23.40;58.00
20777;DHT22;10548;47.504;8.248;2023-07-22T10:03:16;23.40;56.10
20777;DHT22;10548;47.504;8.248;2023-07-22T10:05:46;23.90;54.30
20777;DHT22;10548;47.504;8.248;2023-07-22T10:08:18;23.90;55.30
20777;DHT22;10548;47.504;8.248;2023-07-22T10:10:46;24.40;49.70
20777;DHT22;10548;47.504;8.248;2023-07-22T10:13:14;23.90;51.70
20777;DHT22;10548;47.504;8.248;2023-07-22T10:15:42;23.90;51.50
20777;DHT22;10548;47.504;8.248;2023-07-22T10:18:09;24.50;50.20
20777;DHT22;10548;47.504;8.248;2023-07-22T10:20:38;24.90;50.90
20777;DHT22;10548;47.504;8.248;2023-07-22T10:23:07;25.10;48.80
20777;DHT22;10548;47.504;8.248;2023-07-22T10:25:38;24.90;44.70
20777;DHT22;10548;47.504;8.248;2023-07-22T10:28:06;23.70;45.60
20777;DHT22;10548;47.504;8.248;2023-07-22T10:30:34;24.90;50.40
20777;DHT22;10548;47.504;8.248;2023-07-22T10:33:01;24.60;45.60
20777;DHT22;10548;47.504;8.248;2023-07-22T10:35:41;23.80;43.70
20777;DHT22;10548;47.504;8.248;2023-07-22T10:38:14;24.60;49.80
20777;DHT22;10548;47.504;8.248;2023-07-22T10:40:50;25.40;46.20
20777;DHT22;10548;47.504;8.248;2023-07-22T10:43:18;25.40;44.10
20777;DHT22;10548;47.504;8.248;2023-07-22T10:45:55;25.00;44.80
20777;DHT22;10548;47.504;8.248;2023-07-22T10:48:26;24.50;44.50
20777;DHT22;10548;47.504;8.248;2023-07-22T10:50:58;24.20;44.20
20777;DHT22;10548;47.504;8.248;2023-07-22T10:53:29;23.60;46.80
20777;DHT22;10548;47.504;8.248;2023-07-22T10:56:19;23.60;48.60
20777;DHT22;10548;47.504;8.248;2023-07-22T10:58:56;23.90;48.70
20777;DHT22;10548;47.504;8.248;2023-07-22T11:01:35;23.70;47.20
20777;DHT22;10548;47.504;8.248;2023-07-22T11:04:13;24.00;46.90
20777;DHT22;10548;47.504;8.248;2023-07-22T11:07:03;24.20;47.70
20777;DHT22;10548;47.504;8.248;2023-07-22T11:09:34;25.30;47.10
20777;DHT22;10548;47.504;8.248;2023-07-22T11:12:22;26.80;41.50
20777;DHT22;10548;47.504;8.248;2023-07-22T11:14:53;27.60;37.70
20777;DHT22;10548;47.504;8.248;2023-07-22T11:17:29;26.20;43.50
20777;DHT22;10548;47.504;8.248;2023-07-22T11:19:58;25.50;41.70
20777;DHT22;10548;47.504;8.248;2023-07-22T11:22:26;25.70;43.40
20777;DHT22;10548;47.504;8.248;2023-07-22T11:24:56;25.40;43.10
20777;DHT22;10548;47.504;8.248;2023-07-22T11:27:25;26.00;40.60
20777;DHT22;10548;47.504;8.248;2023-07-22T11:29:52;25.80;40.10
20777;DHT22;10548;47.504;8.248;2023-07-22T11:32:20;25.60;39.70
20777;DHT22;10548;47.504;8.248;2023-07-22T11:34:51;25.70;40.20
20777;DHT22;10548;47.504;8.248;2023-07-22T11:37:20;26.70;37.70
20777;DHT22;10548;47.504;8.248;2023-07-22T11:39:47;27.00;37.30
20777;DHT22;10548;47.504;8.248;2023-07-22T11:42:14;27.80;35.00
20777;DHT22;10548;47.504;8.248;2023-07-22T11:44:42;27.50;35.70
20777;DHT22;10548;47.504;8.248;2023-07-22T11:47:09;27.30;34.30
20777;DHT22;10548;47.504;8.248;2023-07-22T11:49:41;27.40;35.00
20777;DHT22;10548;47.504;8.248;2023-07-22T11:52:10;28.30;33.10
20777;DHT22;10548;47.504;8.248;2023-07-22T11:54:39;26.10;36.50
20777;DHT22;10548;47.504;8.248;2023-07-22T11:57:17;25.40;36.10
20777;DHT22;10548;47.504;8.248;2023-07-22T11:59:48;25.70;33.80
20777;DHT22;10548;47.504;8.248;2023-07-22T12:02:26;26.20;33.00
20777;DHT22;10548;47.504;8.248;2023-07-22T12:05:02;27.40;34.00
20777;DHT22;10548;47.504;8.248;2023-07-22T12:07:31;27.70;33.20
20777;DHT22;10548;47.504;8.248;2023-07-22T12:10:00;27.20;35.90
20777;DHT22;10548;47.504;8.248;2023-07-22T12:12:45;26.50;34.60
20777;DHT22;10548;47.504;8.248;2023-07-22T12:15:19;26.40;36.50
20777;DHT22;10548;47.504;8.248;2023-07-22T12:18:12;26.70;35.30
20777;DHT22;10548;47.504;8.248;2023-07-22T12:20:40;27.30;35.00
20777;DHT22;10548;47.504;8.248;2023-07-22T12:23:07;26.90;38.00
20777;DHT22;10548;47.504;8.248;2023-07-22T12:25:34;26.20;37.80
20777;DHT22;10548;47.504;8.248;2023-07-22T12:28:01;26.10;36.20
20777;DHT22;10548;47.504;8.248;2023-07-22T12:30:29;26.70;34.20
20777;DHT22;10548;47.504;8.248;2023-07-22T12:32:56;28.10;34.50
20777;DHT22;10548;47.504;8.248;2023-07-22T12:35:23;27.90;33.70
20777;DHT22;10548;47.504;8.248;2023-07-22T12:37:50;27.60;34.90
20777;DHT22;10548;47.504;8.248;2023-07-22T12:40:18;27.10;32.80
20777;DHT22;10548;47.504;8.248;2023-07-22T12:42:45;27.20;36.00
20777;DHT22;10548;47.504;8.248;2023-07-22T12:45:13;28.30;33.40
20777;DHT22;10548;47.504;8.248;2023-07-22T12:47:40;26.40;33.10
20777;DHT22;10548;47.504;8.248;2023-07-22T12:50:07;26.20;34.60
20777;DHT22;10548;47.504;8.248;2023-07-22T12:52:35;26.20;36.10
20777;DHT22;10548;47.504;8.248;2023-07-22T12:55:02;26.40;37.20
20777;DHT22;10548;47.504;8.248;2023-07-22T12:57:30;27.10;33.80
20777;DHT22;10548;47.504;8.248;2023-07-22T12:59:57;26.60;35.30
20777;DHT22;10548;47.504;8.248;2023-07-22T13:02:24;27.30;36.80
20777;DHT22;10548;47.504;8.248;2023-07-22T13:04:53;28.50;31.40
20777;DHT22;10548;47.504;8.248;2023-07-22T13:07:20;29.80;29.90
20777;DHT22;10548;47.504;8.248;2023-07-22T13:09:47;29.90;29.30
20777;DHT22;10548;47.504;8.248;2023-07-22T13:12:16;29.40;29.40
20777;DHT22;10548;47.504;8.248;2023-07-22T13:14:45;29.60;29.00
20777;DHT22;10548;47.504;8.248;2023-07-22T13:17:12;28.90;29.50
20777;DHT22;10548;47.504;8.248;2023-07-22T13:19:39;29.10;30.50
20777;DHT22;10548;47.504;8.248;2023-07-22T13:22:06;29.60;29.50
20777;DHT22;10548;47.504;8.248;2023-07-22T13:24:33;30.00;28.40
20777;DHT22;10548;47.504;8.248;2023-07-22T13:27:00;29.30;29.10
20777;DHT22;10548;47.504;8.248;2023-07-22T13:29:27;29.00;30.30
20777;DHT22;10548;47.504;8.248;2023-07-22T13:31:54;29.70;29.10
20777;DHT22;10548;47.504;8.248;2023-07-22T13:34:22;29.90;28.60
20777;DHT22;10548;47.504;8.248;2023-07-22T13:36:49;29.00;29.50
20777;DHT22;10548;47.504;8.248;2023-07-22T13:39:16;27.80;30.70
20777;DHT22;10548;47.504;8.248;2023-07-22T13:41:43;29.20;30.70
20777;DHT22;10548;47.504;8.248;2023-07-22T13:44:11;29.70;29.20
20777;DHT22;10548;47.504;8.248;2023-07-22T13:46:38;30.30;27.40
20777;DHT22;10548;47.504;8.248;2023-07-22T13:49:05;29.70;26.60
20777;DHT22;10548;47.504;8.248;2023-07-22T13:51:32;29.80;28.70
20777;DHT22;10548;47.504;8.248;2023-07-22T13:53:59;29.40;29.40
20777;DHT22;10548;47.504;8.248;2023-07-22T13:56:26;29.20;28.70
20777;DHT22;10548;47.504;8.248;2023-07-22T13:58:56;28.90;28.90
20777;DHT22;10548;47.504;8.248;2023-07-22T14:01:25;28.20;28.70
20777;DHT22;10548;47.504;8.248;2023-07-22T14:03:53;27.90;29.90
20777;DHT22;10548;47.504;8.248;2023-07-22T14:06:20;29.80;29.30
20777;DHT22;10548;47.504;8.248;2023-07-22T14:08:47;30.20;26.70
20777;DHT22;10548;47.504;8.248;2023-07-22T14:11:14;29.90;28.20
20777;DHT22;10548;47.504;8.248;2023-07-22T14:13:42;30.40;27.40
20777;DHT22;10548;47.504;8.248;2023-07-22T14:16:11;28.60;29.60
20777;DHT22;10548;47.504;8.248;2023-07-22T14:18:48;28.60;28.90
20777;DHT22;10548;47.504;8.248;2023-07-22T14:21:15;29.30;27.90
20777;DHT22;10548;47.504;8.248;2023-07-22T14:23:43;28.50;28.80
20777;DHT22;10548;47.504;8.248;2023-07-22T14:26:11;27.50;30.00
20777;DHT22;10548;47.504;8.248;2023-07-22T14:28:38;27.80;29.80
20777;DHT22;10548;47.504;8.248;2023-07-22T14:31:05;27.90;29.50
20777;DHT22;10548;47.504;8.248;2023-07-22T14:33:32;28.80;29.10
20777;DHT22;10548;47.504;8.248;2023-07-22T14:35:59;29.10;28.00
20777;DHT22;10548;47.504;8.248;2023-07-22T14:38:27;28.70;29.10
20777;DHT22;10548;47.504;8.248;2023-07-22T14:40:54;30.00;28.40
20777;DHT22;10548;47.504;8.248;2023-07-22T14:43:22;29.40;27.60
20777;DHT22;10548;47.504;8.248;2023-07-22T14:45:49;29.00;28.30
20777;DHT22;10548;47.504;8.248;2023-07-22T14:48:16;29.60;27.90
20777;DHT22;10548;47.504;8.248;2023-07-22T14:50:43;30.30;27.30
20777;DHT22;10548;47.504;8.248;2023-07-22T14:53:10;30.50;27.50
20777;DHT22;10548;47.504;8.248;2023-07-22T14:55:37;31.30;25.70
20777;DHT22;10548;47.504;8.248;2023-07-22T14:58:04;29.80;26.70
20777;DHT22;10548;47.504;8.248;2023-07-22T15:00:32;29.20;27.70
20777;DHT22;10548;47.504;8.248;2023-07-22T15:02:59;29.30;29.40
20777;DHT22;10548;47.504;8.248;2023-07-22T15:05:27;31.20;26.40
20777;DHT22;10548;47.504;8.248;2023-07-22T15:07:54;31.80;24.50
20777;DHT22;10548;47.504;8.248;2023-07-22T15:10:21;29.50;26.20
20777;DHT22;10548;47.504;8.248;2023-07-22T15:12:48;28.70;28.20
20777;DHT22;10548;47.504;8.248;2023-07-22T15:15:17;28.60;27.00
20777;DHT22;10548;47.504;8.248;2023-07-22T15:17:45;28.40;28.60
20777;DHT22;10548;47.504;8.248;2023-07-22T15:20:12;27.90;28.80
20777;DHT22;10548;47.504;8.248;2023-07-22T15:22:39;28.10;29.30
20777;DHT22;10548;47.504;8.248;2023-07-22T15:25:07;28.20;28.90
20777;DHT22;10548;47.504;8.248;2023-07-22T15:27:34;29.20;28.60
20777;DHT22;10548;47.504;8.248;2023-07-22T15:30:01;30.50;26.30
20777;DHT22;10548;47.504;8.248;2023-07-22T15:32:29;30.30;26.20
20777;DHT22;10548;47.504;8.248;2023-07-22T15:34:56;31.60;24.90
20777;DHT22;10548;47.504;8.248;2023-07-22T15:37:23;29.30;28.10